EDT,Max TemperatureF,Mean TemperatureF,Min TemperatureF,Max Dew PointF,MeanDew PointF,Min DewpointF,Max Humidity, Mean Humidity, Min Humidity, Max Sea Level PressureIn, Mean Sea Level PressureIn, Min Sea Level PressureIn, Max VisibilityMiles, Mean VisibilityMiles, Min VisibilityMiles, Max Wind SpeedMPH, Mean Wind SpeedMPH, Max Gust SpeedMPH,PrecipitationIn, CloudCover, Events, WindDirDegrees
2012-10-1,69,56,44,54,47,43,93,71,43,29.98,29.95,29.91,10,8,0,8,2,,0.00,3,Fog-Rain,209
2012-10-2,66,62,59,63,58,54,94,87,77,30.00,29.96,29.92,10,5,0,7,3,,0.63,8,Fog-Rain,79
2012-10-3,78,71,64,68,64,61,100,85,61,30.15,30.08,29.97,10,6,0,8,1,,0.01,4,Fog-Rain,244
2012-10-4,75,70,64,68,62,52,94,76,53,30.17,30.14,30.12,10,8,2,12,3,9,0.01,3,Rain,280
2012-10-5,77,66,55,61,54,52,88,65,41,30.15,30.09,29.97,10,10,10,10,4,,0.00,0,,243
2012-10-6,71,61,51,57,49,37,88,65,45,30.07,29.94,29.86,10,10,1,20,7,29,0.00,1,,249
2012-10-7,53,48,44,45,40,36,93,73,54,30.16,30.10,30.04,10,10,7,7,3,,0.00,5,Rain,294
2012-10-8,48,42,37,43,38,36,93,82,66,30.30,30.24,30.17,10,10,7,7,3,,0.00,3,Rain,346
2012-10-9,57,50,42,50,44,39,88,79,67,30.23,30.16,30.08,10,9,2,9,2,,0.00,8,Rain,25
2012-10-10,64,57,50,52,46,37,94,72,45,30.08,29.98,29.87,10,6,0,20,5,24,0.00,6,Fog-Rain,259
2012-10-11,60,51,42,37,29,25,62,48,29,30.28,30.20,30.09,10,10,10,13,8,17,0.00,0,,267
2012-10-12,59,50,39,37,33,23,76,55,29,30.44,30.24,30.13,10,10,10,14,6,23,0.00,1,,305
2012-10-13,57,44,30,32,26,16,93,52,29,30.52,30.42,30.26,10,10,10,13,3,20,0.00,0,,165
2012-10-14,71,58,46,54,46,34,82,63,43,30.26,30.12,29.94,10,10,10,14,9,18,0.00,2,,182
2012-10-15,66,60,53,61,55,45,94,77,59,29.93,29.78,29.71,10,9,3,21,11,26,0.00,4,Rain-Thunderstorm,232
2012-10-16,60,52,44,45,39,34,82,64,36,29.94,29.88,29.81,10,10,10,13,7,21,0.00,3,,300
2012-10-17,66,52,39,48,40,36,88,68,37,30.02,29.96,29.93,10,10,7,10,3,,0.00,0,,159
2012-10-18,66,58,50,55,50,34,94,76,30,29.97,29.91,29.81,10,8,3,14,9,28,0.00,3,Rain-Thunderstorm,151
2012-10-19,68,62,53,63,58,52,94,91,82,29.85,29.73,29.63,10,7,1,13,2,,0.00,6,Rain-Thunderstorm,240
2012-10-20,60,55,50,52,39,30,94,57,31,29.94,29.79,29.69,10,10,7,15,5,22,0.00,2,,283
2012-10-21,62,53,44,41,37,34,76,59,36,30.14,30.05,29.94,10,10,10,12,7,18,0.00,1,,272
2012-10-22,66,54,42,46,39,36,81,59,34,30.21,30.16,30.12,10,10,7,9,4,,0.37,0,,278
2012-10-23,78,64,51,61,51,43,83,65,39,30.17,30.10,30.06,10,10,10,12,3,,0.00,2,Rain,197
2012-10-24,78,68,57,55,52,46,88,62,32,30.15,30.11,30.08,10,10,10,8,2,,0.00,2,,244
2012-10-25,66,62,59,57,56,54,88,83,64,30.24,30.20,30.15,10,5,2,8,4,,0.00,8,,126
2012-10-26,68,64,59,59,57,55,88,80,68,30.22,30.16,30.09,10,8,2,7,3,,0.00,7,Rain,120
2012-10-27,66,62,57,55,52,48,88,75,60,30.08,29.97,29.89,10,10,10,10,5,,0.00,5,,75
2012-10-28,57,54,51,52,48,43,88,80,63,29.89,29.78,29.63,10,9,5,15,8,31,0.03,7,Rain,31
2012-10-29,51,48,44,48,45,43,93,90,82,29.62,29.15,28.51,10,5,1,29,15,44,1.81,8,Rain,332
2012-10-30,46,42,39,43,38,36,93,87,81,29.42,29.04,28.50,10,7,3,24,16,36,0.46,8,Rain,192
2012-10-31,,,,,,,,,,,,,,,,,,,,,,